This is the latest recevied weather packets stored in our database for station/object N9CQL. If no packets are shown the sender has not sent any weather packets the latest 10 day(s).
| Time | Temp. | Humidity | Pressure | Rain* | Wind** | Luminosity | Snow |
|---|---|---|---|---|---|---|---|
| 1777504453 | 9.44° C | 80% | 1014 hPa | 0 mm | - | 52 W/m² | - |
| 1777504149 | 9.44° C | 79% | 1013.9 hPa | 0 mm | - | 69 W/m² | - |
| 1777503844 | 10° C | 79% | 1014.1 hPa | 0 mm | - | 79 W/m² | - |
| 1777503541 | 10° C | 80% | 1013.7 hPa | 0 mm | - | 140 W/m² | - |
| 1777503236 | 9.44° C | 80% | 1013.7 hPa | 0 mm | - | 112 W/m² | - |
| 1777502934 | 9.44° C | 81% | 1013.7 hPa | 0 mm | - | 81 W/m² | - |
| 1777502631 | 10° C | 81% | 1013.9 hPa | 0 mm | - | 111 W/m² | - |
| 1777502328 | 10° C | 79% | 1013.9 hPa | 0 mm | - | 109 W/m² | - |
| 1777502024 | 10° C | 79% | 1013.5 hPa | 0 mm | - | 89 W/m² | - |
| 1777501721 | 10.56° C | 78% | 1013.5 hPa | 0 mm | - | 106 W/m² | - |
| 1777501419 | 11.11° C | 82% | 1013.3 hPa | 0 mm | - | 222 W/m² | - |
| 1777501116 | 10.56° C | 82% | 1013.3 hPa | 0 mm | - | 299 W/m² | - |
| 1777500815 | 10.56° C | 84% | 1013.4 hPa | 0 mm | - | 343 W/m² | - |
| 1777500511 | 10° C | 84% | 1013.5 hPa | 0 mm | - | 331 W/m² | - |
| 1777500207 | 10° C | 85% | 1013.4 hPa | 0 mm | - | 81 W/m² | - |
| 1777499904 | 10° C | 85% | 1013.3 hPa | 0 mm | - | 100 W/m² | - |
| 1777499601 | 10.56° C | 85% | 1013.2 hPa | 0 mm | - | 121 W/m² | - |
| 1777499298 | 11.11° C | 85% | 1013.2 hPa | 0 mm | - | 195 W/m² | - |
| 1777498995 | 10.56° C | 88% | 1013.1 hPa | 0 mm | - | 322 W/m² | - |
| 1777498692 | 10.56° C | 88% | 1013.3 hPa | 0 mm | - | 445 W/m² | - |
| 1777498388 | 10° C | 89% | 1013.4 hPa | 0 mm | - | 258 W/m² | - |
| 1777498085 | 9.44° C | 89% | 1013.2 hPa | 0 mm | - | 173 W/m² | - |
| 1777497782 | 10° C | 89% | 1013 hPa | 1.27 mm | - | 548 W/m² | - |
| 1777497479 | 8.89° C | 88% | 1013.3 hPa | 3.05 mm | - | 185 W/m² | - |
| 1777497175 | 8.89° C | 86% | 1013.3 hPa | 4.83 mm | - | 54 W/m² | - |
* Rain latest hour (hover to see other rain measurements)
** Current wind speed in m/s (hover to see current wind gust speed)